Gaz Palmyra — 3FCO4 — position and weather

sailwx.info

Track history (hours):
 
Tides and Currents Weather Stations Pressure Air Temp Water Temp Dewpoint Dewpoint Depression Visibility Wind Speed Wind Dir Waves Ship Positions

Gaz Palmyra

Last reported at 2017-Apr-24 12:40 UTC. Time now 2017-Apr-28 00:31 UTC.
Position N 35°55' W 000°09'.

Length 137 m; draft 5.9 m.

Type: Ship (hazmat cat C). MMSI: 353247000.

Date/timePositionNaut miles runAvg speedWind from/ knotsBaromVisibWave heightAir tempDewpointWater temp
2017-Apr-24 12:40N 35°55' W 000°09'8 0.5
2017-Apr-23 21:02N 36°03' W 000°04'2 5.6
2017-Apr-23 20:42N 36°01' W 000°05'2 7.8
2017-Apr-23 20:30N 35°59' W 000°06'4 7.4
2017-Apr-23 19:56N 35°56' W 000°10'1 2.3
2017-Apr-23 19:30N 35°56' W 000°11'1 1.3
2017-Apr-23 19:00N 35°56' W 000°11'1 1.4
2017-Apr-23 18:30N 35°57' W 000°10'1 1.5
2017-Apr-23 18:00N 35°58' W 000°10'1 1.8
2017-Apr-23 17:30N 35°59' W 000°09'1 1.9
2017-Apr-23 17:00N 35°59' W 000°09'1 1.8
2017-Apr-23 16:30N 36°00' W 000°08'1 1.8
2017-Apr-23 16:00N 36°01' W 000°08'7 2.5
2017-Apr-23 13:24N 35°54' W 000°09'7 1.1
2017-Apr-23 07:29N 35°58' W 000°15'1 1.5
2017-Apr-23 06:59N 35°58' W 000°14'  
2017-Apr-17 13:33N 36°46' E 003°05'0 0.0
2017-Apr-17 13:30N 36°46' E 003°05'0 0.0
2017-Apr-17 12:54N 36°46' E 003°05'  
2017-Apr-15 05:00N 36°32' E 000°33'510.8
2017-Apr-15 04:30N 36°29' E 000°28'610.9
2017-Apr-15 03:57N 36°24' E 000°22'510.5
2017-Apr-15 03:28N 36°20' E 000°19'3010.5
2017-Apr-15 00:33N 35°57' W 000°06'1 9.6
2017-Apr-15 00:29N 35°57' W 000°06'  
Track history (hours):
 
Tides and Currents Weather Stations Pressure Air Temp Water Temp Dewpoint Dewpoint Depression Visibility Wind Speed Wind Dir Waves Ship Positions

Gaz Palmyra

Last reported at 2017-Apr-24 12:40 UTC. Time now 2017-Apr-28 00:31 UTC.
Position N 35°55' W 000°09'.

Length 137 m; draft 5.9 m.

Type: Ship (hazmat cat C). MMSI: 353247000.

Date/timePositionNaut miles runAvg speedWind from/ knotsBaromVisibWave heightAir tempDewpointWater temp
2017-Apr-24 12:40N 35°55' W 000°09'8 0.5
2017-Apr-23 21:02N 36°03' W 000°04'2 5.6
2017-Apr-23 20:42N 36°01' W 000°05'2 7.8
2017-Apr-23 20:30N 35°59' W 000°06'4 7.4
2017-Apr-23 19:56N 35°56' W 000°10'1 2.3
2017-Apr-23 19:30N 35°56' W 000°11'1 1.3
2017-Apr-23 19:00N 35°56' W 000°11'1 1.4
2017-Apr-23 18:30N 35°57' W 000°10'1 1.5
2017-Apr-23 18:00N 35°58' W 000°10'1 1.8
2017-Apr-23 17:30N 35°59' W 000°09'1 1.9
2017-Apr-23 17:00N 35°59' W 000°09'1 1.8
2017-Apr-23 16:30N 36°00' W 000°08'1 1.8
2017-Apr-23 16:00N 36°01' W 000°08'7 2.5
2017-Apr-23 13:24N 35°54' W 000°09'7 1.1
2017-Apr-23 07:29N 35°58' W 000°15'1 1.5
2017-Apr-23 06:59N 35°58' W 000°14'  
2017-Apr-17 13:33N 36°46' E 003°05'0 0.0
2017-Apr-17 13:30N 36°46' E 003°05'0 0.0
2017-Apr-17 12:54N 36°46' E 003°05'  
2017-Apr-15 05:00N 36°32' E 000°33'510.8
2017-Apr-15 04:30N 36°29' E 000°28'610.9
2017-Apr-15 03:57N 36°24' E 000°22'510.5
2017-Apr-15 03:28N 36°20' E 000°19'3010.5
2017-Apr-15 00:33N 35°57' W 000°06'1 9.6
2017-Apr-15 00:29N 35°57' W 000°06'  

Dump ship's entire track history